Terminal Aerodrome Forecast
Issued by NWS

Home | Current Version | Previous Version | Graphics & Text | Print | Product List | Glossary On
Versions: 1 2 3 4 5 6 7 8 9 10 11 12 13 14 15 16 17 18
000
FTUS43 KMPX 182341
TAFRWF
TAF
KRWF 182341Z 1900/1924 19010KT P6SM -RA BKN040 OVC070
     FM190200 16012KT 6SM -RA BR SCT008 BKN017 OVC030
     FM191000 18012KT P6SM VCSH OVC015
     FM191200 30012G19KT P6SM BKN015
     FM191700 22012G21KT P6SM SCT030 BKN050=

USA.gov is the U.S. government's official web portal to all federal, state and local government web resources and services.